RPVP

Puerto Princesa Airport

Puerto Princesa City, Philippines
TAF RPVP 200500Z 2006/2106 07010KT 9999 FEW020 SCT080 TEMPO 2006/2012 09016KT FEW019 BKN080
Issued Valid From Valid To
Jan-20 @ 05:00 UTC
(6 hours ago)
Jan-20 @ 06:00 UTC
(5 hours ago)
Jan-21 @ 06:00 UTC
(in 19 hours)
Jan-20 @ 06:00 to Jan-21 @ 06:00
TAF RPVP 200500Z 2006/2106 07010KT 9999 FEW020 SCT080
Wind Visibility Clouds
70° at 10 knots 10,000+ meters
  • Few at 2,000' AGL
  • Scattered at 8,000' AGL
Temporary Jan-20 @ 06:00 to Jan-20 @ 12:00
TEMPO 2006/2012 09016KT FEW019 BKN080
Wind Clouds
90° at 16 knots
  • Few at 1,900' AGL
  • Broken at 8,000' AGL
TAF RPVP 200500Z 2006/2106 07010KT 9999 FEW020 SCT080 TEMPO 2006/2012 09016KT FEW019 BKN080
Issued Jan-20 @ 05:00 UTC
(6 hours ago)
Valid From Jan-20 @ 06:00 UTC
(5 hours ago)
Valid To Jan-21 @ 06:00 UTC
(in 19 hours)
Jan-20 @ 06:00 - Jan-21 @ 06:00
Wind Visibility
70° at 10 knots 10,000+ meters
Clouds
  • Few at 2,000' AGL
  • Scattered at 8,000' AGL
Temporary Jan-20 @ 06:00 - Jan-20 @ 12:00
Wind
90° at 16 knots
Clouds
  • Few at 1,900' AGL
  • Broken at 8,000' AGL